sensor_id;sensor_type;location;lat;lon;timestamp;pressure;altitude;pressure_sealevel;temperature
68446;BMP280;35789;48.414;12.768;2023-07-22T00:00:00;96870.0;;;
68446;BMP280;35789;48.414;12.768;2023-07-22T00:05:00;96880.0;;;
68446;BMP280;35789;48.414;12.768;2023-07-22T00:10:00;96870.0;;;
68446;BMP280;35789;48.414;12.768;2023-07-22T00:15:00;96870.0;;;
68446;BMP280;35789;48.414;12.768;2023-07-22T00:20:00;96880.0;;;
68446;BMP280;35789;48.414;12.768;2023-07-22T00:25:00;96880.0;;;
68446;BMP280;35789;48.414;12.768;2023-07-22T00:30:00;96880.0;;;
68446;BMP280;35789;48.414;12.768;2023-07-22T00:35:00;96880.0;;;
68446;BMP280;35789;48.414;12.768;2023-07-22T00:40:00;96870.0;;;
68446;BMP280;35789;48.414;12.768;2023-07-22T00:45:00;96880.0;;;
68446;BMP280;35789;48.414;12.768;2023-07-22T00:50:03;96880.0;;;
68446;BMP280;35789;48.414;12.768;2023-07-22T00:55:01;96880.0;;;
68446;BMP280;35789;48.414;12.768;2023-07-22T01:00:00;96870.0;;;
68446;BMP280;35789;48.414;12.768;2023-07-22T01:05:00;96870.0;;;
68446;BMP280;35789;48.414;12.768;2023-07-22T01:10:00;96880.0;;;
68446;BMP280;35789;48.414;12.768;2023-07-22T01:15:00;96890.0;;;
68446;BMP280;35789;48.414;12.768;2023-07-22T01:20:00;96890.0;;;
68446;BMP280;35789;48.414;12.768;2023-07-22T01:25:00;96880.0;;;
68446;BMP280;35789;48.414;12.768;2023-07-22T01:30:00;96890.0;;;
68446;BMP280;35789;48.414;12.768;2023-07-22T01:35:00;96890.0;;;
68446;BMP280;35789;48.414;12.768;2023-07-22T01:40:01;96890.0;;;
68446;BMP280;35789;48.414;12.768;2023-07-22T01:45:00;96890.0;;;
68446;BMP280;35789;48.414;12.768;2023-07-22T01:50:00;96890.0;;;
68446;BMP280;35789;48.414;12.768;2023-07-22T01:55:01;96890.0;;;
68446;BMP280;35789;48.414;12.768;2023-07-22T02:00:00;96890.0;;;
68446;BMP280;35789;48.414;12.768;2023-07-22T02:05:00;96890.0;;;
68446;BMP280;35789;48.414;12.768;2023-07-22T02:10:00;96890.0;;;
68446;BMP280;35789;48.414;12.768;2023-07-22T02:15:00;96890.0;;;
68446;BMP280;35789;48.414;12.768;2023-07-22T02:20:00;96890.0;;;
68446;BMP280;35789;48.414;12.768;2023-07-22T02:25:00;96890.0;;;
68446;BMP280;35789;48.414;12.768;2023-07-22T02:30:00;96890.0;;;
68446;BMP280;35789;48.414;12.768;2023-07-22T02:35:00;96900.0;;;
68446;BMP280;35789;48.414;12.768;2023-07-22T02:40:00;96900.0;;;
68446;BMP280;35789;48.414;12.768;2023-07-22T02:45:00;96920.0;;;
68446;BMP280;35789;48.414;12.768;2023-07-22T02:50:00;96920.0;;;
68446;BMP280;35789;48.414;12.768;2023-07-22T02:55:06;96920.0;;;
68446;BMP280;35789;48.414;12.768;2023-07-22T03:00:01;96930.0;;;
68446;BMP280;35789;48.414;12.768;2023-07-22T03:05:00;96930.0;;;
68446;BMP280;35789;48.414;12.768;2023-07-22T03:10:00;96930.0;;;
68446;BMP280;35789;48.414;12.768;2023-07-22T03:15:00;96940.0;;;
68446;BMP280;35789;48.414;12.768;2023-07-22T03:20:00;96940.0;;;
68446;BMP280;35789;48.414;12.768;2023-07-22T03:25:00;96950.0;;;
68446;BMP280;35789;48.414;12.768;2023-07-22T03:30:00;96950.0;;;
68446;BMP280;35789;48.414;12.768;2023-07-22T03:35:00;96960.0;;;
68446;BMP280;35789;48.414;12.768;2023-07-22T03:40:00;96960.0;;;
68446;BMP280;35789;48.414;12.768;2023-07-22T03:45:00;96970.0;;;
68446;BMP280;35789;48.414;12.768;2023-07-22T03:50:00;96970.0;;;
68446;BMP280;35789;48.414;12.768;2023-07-22T03:55:00;96970.0;;;
68446;BMP280;35789;48.414;12.768;2023-07-22T04:00:00;96980.0;;;
68446;BMP280;35789;48.414;12.768;2023-07-22T04:05:00;96980.0;;;
68446;BMP280;35789;48.414;12.768;2023-07-22T04:10:00;96980.0;;;
68446;BMP280;35789;48.414;12.768;2023-07-22T04:15:00;96980.0;;;
68446;BMP280;35789;48.414;12.768;2023-07-22T04:20:00;96990.0;;;
68446;BMP280;35789;48.414;12.768;2023-07-22T04:25:00;97000.0;;;
68446;BMP280;35789;48.414;12.768;2023-07-22T04:30:00;97010.0;;;
68446;BMP280;35789;48.414;12.768;2023-07-22T04:35:00;97000.0;;;
68446;BMP280;35789;48.414;12.768;2023-07-22T04:40:00;97000.0;;;
68446;BMP280;35789;48.414;12.768;2023-07-22T04:45:00;96990.0;;;
68446;BMP280;35789;48.414;12.768;2023-07-22T04:50:00;96990.0;;;
68446;BMP280;35789;48.414;12.768;2023-07-22T04:55:00;96990.0;;;
68446;BMP280;35789;48.414;12.768;2023-07-22T05:00:00;96990.0;;;
68446;BMP280;35789;48.414;12.768;2023-07-22T05:05:00;96990.0;;;
68446;BMP280;35789;48.414;12.768;2023-07-22T05:10:00;96990.0;;;
68446;BMP280;35789;48.414;12.768;2023-07-22T05:15:00;96990.0;;;
68446;BMP280;35789;48.414;12.768;2023-07-22T05:20:00;97000.0;;;
68446;BMP280;35789;48.414;12.768;2023-07-22T05:25:00;97000.0;;;
68446;BMP280;35789;48.414;12.768;2023-07-22T05:30:00;96990.0;;;
68446;BMP280;35789;48.414;12.768;2023-07-22T05:35:00;96990.0;;;
68446;BMP280;35789;48.414;12.768;2023-07-22T05:40:00;96990.0;;;
68446;BMP280;35789;48.414;12.768;2023-07-22T05:45:02;96980.0;;;
68446;BMP280;35789;48.414;12.768;2023-07-22T05:50:00;96980.0;;;
68446;BMP280;35789;48.414;12.768;2023-07-22T05:55:00;96990.0;;;
68446;BMP280;35789;48.414;12.768;2023-07-22T06:00:00;96980.0;;;
68446;BMP280;35789;48.414;12.768;2023-07-22T06:05:00;96980.0;;;
68446;BMP280;35789;48.414;12.768;2023-07-22T06:10:00;96980.0;;;
68446;BMP280;35789;48.414;12.768;2023-07-22T06:15:00;96970.0;;;
68446;BMP280;35789;48.414;12.768;2023-07-22T06:20:00;96980.0;;;
68446;BMP280;35789;48.414;12.768;2023-07-22T06:25:00;96990.0;;;
68446;BMP280;35789;48.414;12.768;2023-07-22T06:30:00;96980.0;;;
68446;BMP280;35789;48.414;12.768;2023-07-22T06:35:00;96980.0;;;
68446;BMP280;35789;48.414;12.768;2023-07-22T06:40:00;96980.0;;;
68446;BMP280;35789;48.414;12.768;2023-07-22T06:45:00;96980.0;;;
68446;BMP280;35789;48.414;12.768;2023-07-22T06:50:02;96980.0;;;
68446;BMP280;35789;48.414;12.768;2023-07-22T06:55:00;96980.0;;;
68446;BMP280;35789;48.414;12.768;2023-07-22T07:00:00;96980.0;;;
68446;BMP280;35789;48.414;12.768;2023-07-22T07:05:00;96980.0;;;
68446;BMP280;35789;48.414;12.768;2023-07-22T07:10:00;96980.0;;;
68446;BMP280;35789;48.414;12.768;2023-07-22T07:15:00;96980.0;;;
68446;BMP280;35789;48.414;12.768;2023-07-22T07:20:00;96990.0;;;
68446;BMP280;35789;48.414;12.768;2023-07-22T07:25:00;96980.0;;;
68446;BMP280;35789;48.414;12.768;2023-07-22T07:30:00;96980.0;;;
68446;BMP280;35789;48.414;12.768;2023-07-22T07:35:00;97000.0;;;
68446;BMP280;35789;48.414;12.768;2023-07-22T07:40:00;96990.0;;;
68446;BMP280;35789;48.414;12.768;2023-07-22T07:45:00;96990.0;;;
68446;BMP280;35789;48.414;12.768;2023-07-22T07:50:01;97000.0;;;
68446;BMP280;35789;48.414;12.768;2023-07-22T07:55:00;96990.0;;;
68446;BMP280;35789;48.414;12.768;2023-07-22T08:00:00;96990.0;;;
68446;BMP280;35789;48.414;12.768;2023-07-22T08:05:00;96990.0;;;
68446;BMP280;35789;48.414;12.768;2023-07-22T08:10:00;96990.0;;;
68446;BMP280;35789;48.414;12.768;2023-07-22T08:15:00;97000.0;;;
68446;BMP280;35789;48.414;12.768;2023-07-22T08:20:00;97000.0;;;
68446;BMP280;35789;48.414;12.768;2023-07-22T08:25:00;97000.0;;;
68446;BMP280;35789;48.414;12.768;2023-07-22T08:30:00;97000.0;;;
68446;BMP280;35789;48.414;12.768;2023-07-22T08:35:00;97000.0;;;
68446;BMP280;35789;48.414;12.768;2023-07-22T08:40:00;96990.0;;;
68446;BMP280;35789;48.414;12.768;2023-07-22T08:45:02;97000.0;;;
68446;BMP280;35789;48.414;12.768;2023-07-22T08:50:04;96990.0;;;
68446;BMP280;35789;48.414;12.768;2023-07-22T08:55:01;96980.0;;;
68446;BMP280;35789;48.414;12.768;2023-07-22T09:00:02;96970.0;;;
68446;BMP280;35789;48.414;12.768;2023-07-22T09:05:00;96970.0;;;
68446;BMP280;35789;48.414;12.768;2023-07-22T09:10:01;96970.0;;;
68446;BMP280;35789;48.414;12.768;2023-07-22T09:15:01;96980.0;;;
68446;BMP280;35789;48.414;12.768;2023-07-22T09:20:01;96980.0;;;
68446;BMP280;35789;48.414;12.768;2023-07-22T09:25:12;96970.0;;;
68446;BMP280;35789;48.414;12.768;2023-07-22T09:30:00;96960.0;;;
68446;BMP280;35789;48.414;12.768;2023-07-22T09:35:00;96950.0;;;
68446;BMP280;35789;48.414;12.768;2023-07-22T09:40:00;96950.0;;;
68446;BMP280;35789;48.414;12.768;2023-07-22T09:45:00;96950.0;;;
68446;BMP280;35789;48.414;12.768;2023-07-22T09:50:00;96950.0;;;
68446;BMP280;35789;48.414;12.768;2023-07-22T09:55:00;96950.0;;;
68446;BMP280;35789;48.414;12.768;2023-07-22T10:00:01;96940.0;;;
68446;BMP280;35789;48.414;12.768;2023-07-22T10:05:02;96940.0;;;
68446;BMP280;35789;48.414;12.768;2023-07-22T10:10:01;96940.0;;;
68446;BMP280;35789;48.414;12.768;2023-07-22T10:15:01;96930.0;;;
68446;BMP280;35789;48.414;12.768;2023-07-22T10:20:02;96920.0;;;
68446;BMP280;35789;48.414;12.768;2023-07-22T10:25:01;96920.0;;;
68446;BMP280;35789;48.414;12.768;2023-07-22T10:30:00;96910.0;;;
68446;BMP280;35789;48.414;12.768;2023-07-22T10:35:00;96910.0;;;
68446;BMP280;35789;48.414;12.768;2023-07-22T10:40:01;96910.0;;;
68446;BMP280;35789;48.414;12.768;2023-07-22T10:45:00;96900.0;;;
68446;BMP280;35789;48.414;12.768;2023-07-22T10:50:06;96900.0;;;
68446;BMP280;35789;48.414;12.768;2023-07-22T10:55:00;96900.0;;;
68446;BMP280;35789;48.414;12.768;2023-07-22T11:00:00;96880.0;;;
68446;BMP280;35789;48.414;12.768;2023-07-22T11:05:02;96880.0;;;
68446;BMP280;35789;48.414;12.768;2023-07-22T11:10:12;96880.0;;;
68446;BMP280;35789;48.414;12.768;2023-07-22T11:15:03;96870.0;;;
68446;BMP280;35789;48.414;12.768;2023-07-22T11:20:02;96860.0;;;
68446;BMP280;35789;48.414;12.768;2023-07-22T11:25:00;96860.0;;;
68446;BMP280;35789;48.414;12.768;2023-07-22T11:30:02;96850.0;;;
68446;BMP280;35789;48.414;12.768;2023-07-22T11:35:00;96840.0;;;
68446;BMP280;35789;48.414;12.768;2023-07-22T11:40:00;96830.0;;;
68446;BMP280;35789;48.414;12.768;2023-07-22T11:45:00;96830.0;;;
68446;BMP280;35789;48.414;12.768;2023-07-22T11:50:00;96810.0;;;
68446;BMP280;35789;48.414;12.768;2023-07-22T11:55:02;96810.0;;;
68446;BMP280;35789;48.414;12.768;2023-07-22T12:00:00;96800.0;;;
68446;BMP280;35789;48.414;12.768;2023-07-22T12:05:02;96810.0;;;
68446;BMP280;35789;48.414;12.768;2023-07-22T12:10:03;96820.0;;;
68446;BMP280;35789;48.414;12.768;2023-07-22T12:15:02;96810.0;;;
68446;BMP280;35789;48.414;12.768;2023-07-22T12:20:05;96810.0;;;
68446;BMP280;35789;48.414;12.768;2023-07-22T12:25:00;96800.0;;;
68446;BMP280;35789;48.414;12.768;2023-07-22T12:30:00;96800.0;;;
68446;BMP280;35789;48.414;12.768;2023-07-22T12:35:00;96810.0;;;
68446;BMP280;35789;48.414;12.768;2023-07-22T12:40:00;96810.0;;;
68446;BMP280;35789;48.414;12.768;2023-07-22T12:45:00;96800.0;;;
68446;BMP280;35789;48.414;12.768;2023-07-22T12:50:00;96800.0;;;
68446;BMP280;35789;48.414;12.768;2023-07-22T12:55:00;96790.0;;;
68446;BMP280;35789;48.414;12.768;2023-07-22T13:00:00;96790.0;;;
68446;BMP280;35789;48.414;12.768;2023-07-22T13:05:00;96780.0;;;
68446;BMP280;35789;48.414;12.768;2023-07-22T13:10:00;96770.0;;;
68446;BMP280;35789;48.414;12.768;2023-07-22T13:15:00;96770.0;;;
68446;BMP280;35789;48.414;12.768;2023-07-22T13:20:00;96760.0;;;
68446;BMP280;35789;48.414;12.768;2023-07-22T13:25:00;96760.0;;;
68446;BMP280;35789;48.414;12.768;2023-07-22T13:30:00;96760.0;;;
68446;BMP280;35789;48.414;12.768;2023-07-22T13:35:00;96760.0;;;
68446;BMP280;35789;48.414;12.768;2023-07-22T13:40:00;96750.0;;;
68446;BMP280;35789;48.414;12.768;2023-07-22T13:45:02;96750.0;;;
68446;BMP280;35789;48.414;12.768;2023-07-22T13:50:01;96750.0;;;
68446;BMP280;35789;48.414;12.768;2023-07-22T13:55:00;96750.0;;;
68446;BMP280;35789;48.414;12.768;2023-07-22T14:05:00;96740.0;;;
68446;BMP280;35789;48.414;12.768;2023-07-22T14:10:00;96740.0;;;
68446;BMP280;35789;48.414;12.768;2023-07-22T14:15:00;96730.0;;;
68446;BMP280;35789;48.414;12.768;2023-07-22T14:20:00;96740.0;;;
68446;BMP280;35789;48.414;12.768;2023-07-22T14:25:00;96740.0;;;
68446;BMP280;35789;48.414;12.768;2023-07-22T14:30:01;96730.0;;;
68446;BMP280;35789;48.414;12.768;2023-07-22T14:35:00;96730.0;;;
68446;BMP280;35789;48.414;12.768;2023-07-22T14:40:00;96730.0;;;
68446;BMP280;35789;48.414;12.768;2023-07-22T14:45:00;96740.0;;;
68446;BMP280;35789;48.414;12.768;2023-07-22T14:50:00;96730.0;;;
68446;BMP280;35789;48.414;12.768;2023-07-22T14:55:00;96740.0;;;
68446;BMP280;35789;48.414;12.768;2023-07-22T15:00:00;96730.0;;;
68446;BMP280;35789;48.414;12.768;2023-07-22T15:05:00;96730.0;;;
68446;BMP280;35789;48.414;12.768;2023-07-22T15:10:00;96730.0;;;
68446;BMP280;35789;48.414;12.768;2023-07-22T15:15:00;96720.0;;;
68446;BMP280;35789;48.414;12.768;2023-07-22T15:20:01;96730.0;;;
68446;BMP280;35789;48.414;12.768;2023-07-22T15:25:00;96730.0;;;
68446;BMP280;35789;48.414;12.768;2023-07-22T15:30:00;96720.0;;;
68446;BMP280;35789;48.414;12.768;2023-07-22T15:35:00;96720.0;;;
68446;BMP280;35789;48.414;12.768;2023-07-22T15:40:02;96720.0;;;
68446;BMP280;35789;48.414;12.768;2023-07-22T15:45:00;96720.0;;;
68446;BMP280;35789;48.414;12.768;2023-07-22T15:50:00;96710.0;;;
68446;BMP280;35789;48.414;12.768;2023-07-22T15:55:00;96710.0;;;
68446;BMP280;35789;48.414;12.768;2023-07-22T16:00:00;96710.0;;;
68446;BMP280;35789;48.414;12.768;2023-07-22T16:05:00;96710.0;;;
68446;BMP280;35789;48.414;12.768;2023-07-22T16:10:00;96700.0;;;
68446;BMP280;35789;48.414;12.768;2023-07-22T16:15:00;96700.0;;;
68446;BMP280;35789;48.414;12.768;2023-07-22T16:20:00;96710.0;;;
68446;BMP280;35789;48.414;12.768;2023-07-22T16:25:00;96700.0;;;
68446;BMP280;35789;48.414;12.768;2023-07-22T16:30:00;96700.0;;;
68446;BMP280;35789;48.414;12.768;2023-07-22T16:35:00;96710.0;;;
68446;BMP280;35789;48.414;12.768;2023-07-22T16:40:00;96700.0;;;
68446;BMP280;35789;48.414;12.768;2023-07-22T16:45:01;96710.0;;;
68446;BMP280;35789;48.414;12.768;2023-07-22T16:50:00;96700.0;;;
68446;BMP280;35789;48.414;12.768;2023-07-22T16:55:00;96700.0;;;
68446;BMP280;35789;48.414;12.768;2023-07-22T17:00:00;96700.0;;;
68446;BMP280;35789;48.414;12.768;2023-07-22T17:05:00;96700.0;;;
68446;BMP280;35789;48.414;12.768;2023-07-22T17:10:00;96710.0;;;
68446;BMP280;35789;48.414;12.768;2023-07-22T17:15:00;96710.0;;;
68446;BMP280;35789;48.414;12.768;2023-07-22T17:20:00;96710.0;;;
68446;BMP280;35789;48.414;12.768;2023-07-22T17:25:00;96710.0;;;
68446;BMP280;35789;48.414;12.768;2023-07-22T17:30:00;96710.0;;;
68446;BMP280;35789;48.414;12.768;2023-07-22T17:35:00;96700.0;;;
68446;BMP280;35789;48.414;12.768;2023-07-22T17:40:00;96700.0;;;
68446;BMP280;35789;48.414;12.768;2023-07-22T17:45:00;96700.0;;;
68446;BMP280;35789;48.414;12.768;2023-07-22T17:50:00;96700.0;;;
68446;BMP280;35789;48.414;12.768;2023-07-22T17:55:00;96700.0;;;
68446;BMP280;35789;48.414;12.768;2023-07-22T18:00:00;96700.0;;;
68446;BMP280;35789;48.414;12.768;2023-07-22T18:05:00;96700.0;;;
68446;BMP280;35789;48.414;12.768;2023-07-22T18:10:01;96700.0;;;
68446;BMP280;35789;48.414;12.768;2023-07-22T18:15:00;96710.0;;;
68446;BMP280;35789;48.414;12.768;2023-07-22T18:20:00;96700.0;;;
68446;BMP280;35789;48.414;12.768;2023-07-22T18:25:00;96700.0;;;
68446;BMP280;35789;48.414;12.768;2023-07-22T18:30:00;96710.0;;;
68446;BMP280;35789;48.414;12.768;2023-07-22T18:35:00;96720.0;;;
68446;BMP280;35789;48.414;12.768;2023-07-22T18:40:00;96720.0;;;
68446;BMP280;35789;48.414;12.768;2023-07-22T18:45:00;96730.0;;;
68446;BMP280;35789;48.414;12.768;2023-07-22T18:50:00;96730.0;;;
68446;BMP280;35789;48.414;12.768;2023-07-22T18:55:00;96740.0;;;
68446;BMP280;35789;48.414;12.768;2023-07-22T19:00:00;96730.0;;;
68446;BMP280;35789;48.414;12.768;2023-07-22T19:05:00;96750.0;;;
68446;BMP280;35789;48.414;12.768;2023-07-22T19:10:00;96750.0;;;
68446;BMP280;35789;48.414;12.768;2023-07-22T19:15:00;96760.0;;;
68446;BMP280;35789;48.414;12.768;2023-07-22T19:20:00;96770.0;;;
68446;BMP280;35789;48.414;12.768;2023-07-22T19:25:00;96770.0;;;
68446;BMP280;35789;48.414;12.768;2023-07-22T19:30:00;96780.0;;;
68446;BMP280;35789;48.414;12.768;2023-07-22T19:35:00;96790.0;;;
68446;BMP280;35789;48.414;12.768;2023-07-22T19:40:00;96790.0;;;
68446;BMP280;35789;48.414;12.768;2023-07-22T19:45:00;96800.0;;;
68446;BMP280;35789;48.414;12.768;2023-07-22T19:50:00;96790.0;;;
68446;BMP280;35789;48.414;12.768;2023-07-22T19:55:00;96790.0;;;
68446;BMP280;35789;48.414;12.768;2023-07-22T20:00:00;96800.0;;;
68446;BMP280;35789;48.414;12.768;2023-07-22T20:05:00;96810.0;;;
68446;BMP280;35789;48.414;12.768;2023-07-22T20:10:00;96810.0;;;
68446;BMP280;35789;48.414;12.768;2023-07-22T20:15:00;96810.0;;;
68446;BMP280;35789;48.414;12.768;2023-07-22T20:20:00;96820.0;;;
68446;BMP280;35789;48.414;12.768;2023-07-22T20:25:00;96820.0;;;
68446;BMP280;35789;48.414;12.768;2023-07-22T20:30:00;96820.0;;;
68446;BMP280;35789;48.414;12.768;2023-07-22T20:35:00;96830.0;;;
68446;BMP280;35789;48.414;12.768;2023-07-22T20:40:00;96830.0;;;
68446;BMP280;35789;48.414;12.768;2023-07-22T20:45:00;96840.0;;;
68446;BMP280;35789;48.414;12.768;2023-07-22T20:50:00;96840.0;;;
68446;BMP280;35789;48.414;12.768;2023-07-22T20:55:00;96840.0;;;
68446;BMP280;35789;48.414;12.768;2023-07-22T21:00:03;96840.0;;;
68446;BMP280;35789;48.414;12.768;2023-07-22T21:05:00;96850.0;;;
68446;BMP280;35789;48.414;12.768;2023-07-22T21:10:00;96850.0;;;
68446;BMP280;35789;48.414;12.768;2023-07-22T21:15:00;96850.0;;;
68446;BMP280;35789;48.414;12.768;2023-07-22T21:20:00;96860.0;;;
68446;BMP280;35789;48.414;12.768;2023-07-22T21:25:00;96860.0;;;
68446;BMP280;35789;48.414;12.768;2023-07-22T21:30:00;96860.0;;;
68446;BMP280;35789;48.414;12.768;2023-07-22T21:35:00;96860.0;;;
68446;BMP280;35789;48.414;12.768;2023-07-22T21:40:00;96860.0;;;
68446;BMP280;35789;48.414;12.768;2023-07-22T21:45:00;96870.0;;;
68446;BMP280;35789;48.414;12.768;2023-07-22T21:50:00;96870.0;;;
68446;BMP280;35789;48.414;12.768;2023-07-22T21:55:00;96880.0;;;
68446;BMP280;35789;48.414;12.768;2023-07-22T22:00:00;96870.0;;;
68446;BMP280;35789;48.414;12.768;2023-07-22T22:05:00;96880.0;;;
68446;BMP280;35789;48.414;12.768;2023-07-22T22:10:00;96870.0;;;
68446;BMP280;35789;48.414;12.768;2023-07-22T22:15:00;96880.0;;;
68446;BMP280;35789;48.414;12.768;2023-07-22T22:20:00;96880.0;;;
68446;BMP280;35789;48.414;12.768;2023-07-22T22:25:00;96890.0;;;
68446;BMP280;35789;48.414;12.768;2023-07-22T22:30:00;96890.0;;;
68446;BMP280;35789;48.414;12.768;2023-07-22T22:35:00;96890.0;;;
68446;BMP280;35789;48.414;12.768;2023-07-22T22:40:00;96890.0;;;
68446;BMP280;35789;48.414;12.768;2023-07-22T22:45:00;96890.0;;;
68446;BMP280;35789;48.414;12.768;2023-07-22T22:50:00;96890.0;;;
68446;BMP280;35789;48.414;12.768;2023-07-22T22:55:00;96880.0;;;
68446;BMP280;35789;48.414;12.768;2023-07-22T23:00:00;96880.0;;;
68446;BMP280;35789;48.414;12.768;2023-07-22T23:05:00;96890.0;;;
68446;BMP280;35789;48.414;12.768;2023-07-22T23:10:00;96890.0;;;
68446;BMP280;35789;48.414;12.768;2023-07-22T23:15:00;96890.0;;;
68446;BMP280;35789;48.414;12.768;2023-07-22T23:20:01;96880.0;;;
68446;BMP280;35789;48.414;12.768;2023-07-22T23:25:00;96890.0;;;
68446;BMP280;35789;48.414;12.768;2023-07-22T23:30:00;96890.0;;;
68446;BMP280;35789;48.414;12.768;2023-07-22T23:35:01;96890.0;;;
68446;BMP280;35789;48.414;12.768;2023-07-22T23:40:00;96890.0;;;
68446;BMP280;35789;48.414;12.768;2023-07-22T23:45:00;96890.0;;;
68446;BMP280;35789;48.414;12.768;2023-07-22T23:50:00;96890.0;;;
68446;BMP280;35789;48.414;12.768;2023-07-22T23:55:00;96890.0;;;
